Time;durP1;ratioP1;P1;durP2;ratioP2;P2;SDS_P1;SDS_P2;PMS_P1;PMS_P2;Temp;Humidity;BMP_temperature;BMP_pressure;BME280_temperature;BME280_humidity;BME280_pressure;Samples;Min_cycle;Max_cycle;Signal;HPM_P1;HPM_P2
2022/10/11 00:00:04;;;;;;;11.05;5.43;;;;;;;;;;5134733;27;20030;-77
2022/10/11 00:02:50;;;;;;;11.88;5.70;;;;;;;;;;5120542;27;20015;-76
2022/10/11 00:05:35;;;;;;;9.15;4.90;;;;;;;;;;5135453;27;20016;-76
2022/10/11 00:08:21;;;;;;;11.00;5.40;;;;;;;;;;5135573;27;20035;-75
2022/10/11 00:11:07;;;;;;;9.77;5.97;;;;;;;;;;5134583;27;20026;-75
2022/10/11 00:13:52;;;;;;;14.07;6.78;;;;;;;;;;5135434;27;20351;-76
2022/10/11 00:16:40;;;;;;;14.00;6.72;;;;;;;;;;5120476;27;20443;-75
2022/10/11 00:19:26;;;;;;;10.30;6.07;;;;;;;;;;5136032;27;20035;-76
2022/10/11 00:22:11;;;;;;;11.13;6.53;;;;;;;;;;5134847;27;20050;-76
2022/10/11 00:24:58;;;;;;;11.10;6.40;;;;;;;;;;5134030;27;20023;-75
2022/10/11 00:27:43;;;;;;;10.20;5.95;;;;;;;;;;5134525;27;20015;-75
2022/10/11 00:30:29;;;;;;;13.00;6.53;;;;;;;;;;5135039;27;20119;-75
2022/10/11 00:33:14;;;;;;;11.38;6.00;;;;;;;;;;5120053;27;20033;-77
2022/10/11 00:36:00;;;;;;;9.73;5.78;;;;;;;;;;5135425;27;20020;-75
2022/10/11 00:38:45;;;;;;;10.30;6.00;;;;;;;;;;5135171;27;20031;-76
2022/10/11 00:41:31;;;;;;;11.40;6.10;;;;;;;;;;5133416;27;20019;-76
2022/10/11 00:44:21;;;;;;;15.45;5.47;;;;;;;;;;5134578;27;20023;-74
2022/10/11 00:47:14;;;;;;;9.45;5.38;;;;;;;;;;5134610;27;20046;-75
2022/10/11 00:50:00;;;;;;;9.82;5.82;;;;;;;;;;5133964;27;20355;-76
2022/10/11 00:52:49;;;;;;;9.10;5.45;;;;;;;;;;5134344;27;20068;-75
2022/10/11 00:55:37;;;;;;;9.93;6.20;;;;;;;;;;5134316;27;20400;-75
2022/10/11 00:58:23;;;;;;;9.93;6.15;;;;;;;;;;5134187;27;20034;-75
2022/10/11 01:01:09;;;;;;;8.77;5.63;;;;;;;;;;5134958;27;20027;-75
2022/10/11 01:03:55;;;;;;;9.00;5.70;;;;;;;;;;5134309;27;20033;-74
2022/10/11 01:06:40;;;;;;;10.02;6.13;;;;;;;;;;5134601;27;20023;-73
2022/10/11 01:09:26;;;;;;;10.68;6.30;;;;;;;;;;5133366;28;20038;-73
2022/10/11 01:12:20;;;;;;;11.15;5.88;;;;;;;;;;5119715;28;20016;-75
2022/10/11 01:15:08;;;;;;;7.75;5.47;;;;;;;;;;5133129;28;20439;-74
2022/10/11 01:18:06;;;;;;;8.73;5.80;;;;;;;;;;5134293;28;20416;-74
2022/10/11 01:21:10;;;;;;;8.80;5.50;;;;;;;;;;5134645;28;20019;-74
2022/10/11 01:23:59;;;;;;;8.93;5.88;;;;;;;;;;5134965;28;20011;-74
2022/10/11 01:26:53;;;;;;;8.27;5.10;;;;;;;;;;5134533;28;20023;-74
2022/10/11 01:29:42;;;;;;;8.60;5.22;;;;;;;;;;5134214;28;20023;-73
2022/10/11 01:32:32;;;;;;;9.85;5.50;;;;;;;;;;5134357;28;20027;-73
2022/10/11 01:35:20;;;;;;;8.50;5.57;;;;;;;;;;5119275;28;20447;-73
2022/10/11 01:38:19;;;;;;;8.85;5.32;;;;;;;;;;5120513;28;20328;-73
2022/10/11 01:41:16;;;;;;;8.45;5.22;;;;;;;;;;5134174;28;20076;-73
2022/10/11 01:44:02;;;;;;;7.57;5.20;;;;;;;;;;5132917;28;20442;-74
2022/10/11 01:46:49;;;;;;;8.23;5.20;;;;;;;;;;5119784;28;20023;-74
2022/10/11 01:49:35;;;;;;;10.93;5.60;;;;;;;;;;5133087;28;20095;-74
2022/10/11 01:52:20;;;;;;;10.18;5.55;;;;;;;;;;5133641;28;20114;-73
2022/10/11 01:55:09;;;;;;;12.15;5.57;;;;;;;;;;5133708;28;20051;-73
2022/10/11 01:58:04;;;;;;;8.70;5.45;;;;;;;;;;5119142;28;20019;-74
2022/10/11 02:01:28;;;;;;;9.40;5.50;;;;;;;;;;5134461;28;20023;-74
2022/10/11 02:04:20;;;;;;;9.95;5.55;;;;;;;;;;5051079;28;20025;-74
2022/10/11 02:07:09;;;;;;;9.32;5.75;;;;;;;;;;5051222;28;20526;-73
2022/10/11 02:09:57;;;;;;;9.65;5.75;;;;;;;;;;5129212;28;20035;-73
2022/10/11 02:12:47;;;;;;;9.77;5.43;;;;;;;;;;5133998;28;20042;-73
2022/10/11 02:15:35;;;;;;;9.77;5.10;;;;;;;;;;5134923;27;20079;-75
2022/10/11 02:18:23;;;;;;;7.75;5.30;;;;;;;;;;5136640;27;20019;-74
2022/10/11 02:21:11;;;;;;;8.25;5.35;;;;;;;;;;5137121;27;20047;-73
2022/10/11 02:24:00;;;;;;;9.02;5.00;;;;;;;;;;5137506;27;20015;-73
2022/10/11 02:26:47;;;;;;;13.52;5.90;;;;;;;;;;5136415;27;20043;-73
2022/10/11 02:29:35;;;;;;;9.98;5.88;;;;;;;;;;5136091;27;20410;-73
2022/10/11 02:32:22;;;;;;;8.57;5.45;;;;;;;;;;5136375;27;20443;-74
2022/10/11 02:35:08;;;;;;;7.15;5.18;;;;;;;;;;5135897;27;20441;-74
2022/10/11 02:38:13;;;;;;;9.52;5.07;;;;;;;;;;5137377;27;20027;-73
2022/10/11 02:41:08;;;;;;;8.88;5.10;;;;;;;;;;5136784;27;20050;-74
2022/10/11 02:43:59;;;;;;;8.98;5.20;;;;;;;;;;5137633;27;20019;-74
2022/10/11 02:46:45;;;;;;;8.73;5.13;;;;;;;;;;5122129;27;20111;-73
2022/10/11 02:49:31;;;;;;;8.48;4.78;;;;;;;;;;5136485;27;20340;-74
2022/10/11 02:52:16;;;;;;;7.75;4.60;;;;;;;;;;5137292;27;20023;-73
2022/10/11 02:55:02;;;;;;;6.78;4.90;;;;;;;;;;5136570;27;20379;-74
2022/10/11 02:57:48;;;;;;;11.60;5.20;;;;;;;;;;5135994;27;20072;-74
2022/10/11 03:00:33;;;;;;;7.68;4.70;;;;;;;;;;5135997;27;20015;-74
2022/10/11 03:03:19;;;;;;;11.25;4.68;;;;;;;;;;5135494;27;20011;-74
2022/10/11 03:06:05;;;;;;;7.03;4.40;;;;;;;;;;5137081;27;20427;-75
2022/10/11 03:08:50;;;;;;;9.82;5.18;;;;;;;;;;5136713;27;20027;-74
2022/10/11 03:11:36;;;;;;;7.60;4.78;;;;;;;;;;5136782;27;20488;-74
2022/10/11 03:14:22;;;;;;;12.40;5.13;;;;;;;;;;5121606;27;20042;-74
2022/10/11 03:17:08;;;;;;;10.95;5.60;;;;;;;;;;5136167;27;20431;-73
2022/10/11 03:19:53;;;;;;;11.77;5.75;;;;;;;;;;5135941;27;20034;-74
2022/10/11 03:22:39;;;;;;;14.50;6.28;;;;;;;;;;5135947;27;20479;-74
2022/10/11 03:25:25;;;;;;;13.63;5.40;;;;;;;;;;5121123;27;20027;-74
2022/10/11 03:28:11;;;;;;;11.20;5.78;;;;;;;;;;5135509;27;20031;-74
2022/10/11 03:30:56;;;;;;;12.15;5.72;;;;;;;;;;5135625;27;20051;-73
2022/10/11 03:33:42;;;;;;;10.77;6.72;;;;;;;;;;5135243;27;20036;-73
2022/10/11 03:36:28;;;;;;;11.75;6.63;;;;;;;;;;5135453;27;20068;-74
2022/10/11 03:39:13;;;;;;;12.98;7.10;;;;;;;;;;5137315;27;20016;-74
2022/10/11 03:41:59;;;;;;;11.77;6.57;;;;;;;;;;5135180;27;20103;-74
2022/10/11 03:44:47;;;;;;;12.45;6.78;;;;;;;;;;5134907;27;20023;-73
2022/10/11 03:47:37;;;;;;;12.00;6.53;;;;;;;;;;5135335;27;20019;-74
2022/10/11 03:50:23;;;;;;;13.80;6.88;;;;;;;;;;5135389;27;20023;-74
2022/10/11 03:53:09;;;;;;;13.43;6.47;;;;;;;;;;5135381;27;20019;-73
2022/10/11 03:55:55;;;;;;;10.55;6.47;;;;;;;;;;5135912;27;20107;-74
2022/10/11 03:58:41;;;;;;;9.30;6.50;;;;;;;;;;5135797;27;20358;-73
2022/10/11 04:01:26;;;;;;;10.90;6.65;;;;;;;;;;5134644;27;20015;-75
2022/10/11 04:04:12;;;;;;;12.70;6.32;;;;;;;;;;5135060;27;20020;-74
2022/10/11 04:06:57;;;;;;;16.95;6.55;;;;;;;;;;5135496;27;20091;-74
2022/10/11 04:09:43;;;;;;;10.05;6.68;;;;;;;;;;5134992;27;20011;-76
2022/10/11 04:12:28;;;;;;;11.93;6.40;;;;;;;;;;5135496;27;20094;-76
2022/10/11 04:15:14;;;;;;;9.00;6.40;;;;;;;;;;5135230;27;20093;-73
2022/10/11 04:18:00;;;;;;;12.57;6.72;;;;;;;;;;5134808;27;20480;-74
2022/10/11 04:20:45;;;;;;;12.00;6.82;;;;;;;;;;5135541;27;20038;-71
2022/10/11 04:23:31;;;;;;;11.43;6.75;;;;;;;;;;5135160;27;20106;-75
2022/10/11 04:26:19;;;;;;;14.57;7.30;;;;;;;;;;5134495;27;20019;-74
2022/10/11 04:29:05;;;;;;;15.63;7.68;;;;;;;;;;5121538;27;20352;-72
2022/10/11 04:31:51;;;;;;;13.32;8.07;;;;;;;;;;5135226;27;20027;-79
2022/10/11 04:34:36;;;;;;;17.67;8.82;;;;;;;;;;5136068;27;20023;-79
2022/10/11 04:37:22;;;;;;;19.63;9.32;;;;;;;;;;5135649;27;20480;-80
2022/10/11 04:40:08;;;;;;;19.40;9.90;;;;;;;;;;5134735;27;20030;-79
2022/10/11 04:42:53;;;;;;;21.25;9.90;;;;;;;;;;5148779;27;20019;-79
2022/10/11 04:45:39;;;;;;;25.48;10.15;;;;;;;;;;5139051;27;20091;-79
2022/10/11 04:48:25;;;;;;;20.35;9.30;;;;;;;;;;5121241;27;20019;-79
2022/10/11 04:51:10;;;;;;;26.95;11.00;;;;;;;;;;5119648;27;20094;-79
2022/10/11 04:53:56;;;;;;;32.75;11.20;;;;;;;;;;5119216;27;20045;-79
2022/10/11 04:56:42;;;;;;;31.10;11.10;;;;;;;;;;5134228;27;20503;-80
2022/10/11 04:59:29;;;;;;;28.75;9.95;;;;;;;;;;5135205;27;20047;-80
2022/10/11 05:02:14;;;;;;;24.05;10.45;;;;;;;;;;5143632;27;20023;-78
2022/10/11 05:05:00;;;;;;;24.20;10.13;;;;;;;;;;5137870;27;20019;-80
2022/10/11 05:07:45;;;;;;;25.35;10.02;;;;;;;;;;5134587;27;20019;-74
2022/10/11 05:10:31;;;;;;;26.40;11.27;;;;;;;;;;5134210;27;20042;-77
2022/10/11 05:13:16;;;;;;;26.30;9.95;;;;;;;;;;5120399;28;20471;-76
2022/10/11 05:16:02;;;;;;;23.73;9.60;;;;;;;;;;5134877;28;20023;-75
2022/10/11 05:18:48;;;;;;;22.23;9.02;;;;;;;;;;5133633;28;20121;-76
2022/10/11 05:21:34;;;;;;;22.77;9.13;;;;;;;;;;5133295;28;20017;-77
2022/10/11 05:24:19;;;;;;;26.38;9.00;;;;;;;;;;5134491;28;20023;-75
2022/10/11 05:27:05;;;;;;;21.42;8.10;;;;;;;;;;5133706;28;20027;-76
2022/10/11 05:29:51;;;;;;;19.90;9.18;;;;;;;;;;5134305;28;20027;-76
2022/10/11 05:32:36;;;;;;;16.70;8.27;;;;;;;;;;5119268;28;20075;-76
2022/10/11 05:35:22;;;;;;;13.27;6.97;;;;;;;;;;5133229;28;20023;-78
2022/10/11 05:38:07;;;;;;;14.60;6.95;;;;;;;;;;5119263;28;20039;-78
2022/10/11 05:40:53;;;;;;;18.90;7.78;;;;;;;;;;5119650;28;20027;-78
2022/10/11 05:43:39;;;;;;;16.88;6.95;;;;;;;;;;5134073;28;20027;-79
2022/10/11 05:46:24;;;;;;;17.13;8.20;;;;;;;;;;5134374;28;20020;-78
2022/10/11 05:49:10;;;;;;;19.00;8.48;;;;;;;;;;5136264;27;20023;-78
2022/10/11 05:51:55;;;;;;;19.00;8.68;;;;;;;;;;5124140;27;20443;-74
2022/10/11 05:54:41;;;;;;;18.50;8.85;;;;;;;;;;5137937;27;20088;-75
2022/10/11 05:57:27;;;;;;;24.42;9.55;;;;;;;;;;5137777;27;20096;-75
2022/10/11 06:00:13;;;;;;;26.45;8.82;;;;;;;;;;5138119;27;20012;-74
2022/10/11 06:02:58;;;;;;;20.60;9.18;;;;;;;;;;5123078;27;20038;-75
2022/10/11 06:05:44;;;;;;;22.77;9.07;;;;;;;;;;5137066;27;20115;-75
2022/10/11 06:08:29;;;;;;;18.42;9.55;;;;;;;;;;5136431;27;20030;-74
2022/10/11 06:11:16;;;;;;;20.73;9.23;;;;;;;;;;5136872;27;20080;-76
2022/10/11 06:14:02;;;;;;;20.50;11.63;;;;;;;;;;5136621;27;20019;-80
2022/10/11 06:16:48;;;;;;;19.55;10.93;;;;;;;;;;5138597;27;20023;-78
2022/10/11 06:19:33;;;;;;;18.95;9.70;;;;;;;;;;5136182;27;20033;-77
2022/10/11 06:22:19;;;;;;;24.27;10.65;;;;;;;;;;5122789;27;20019;-77
2022/10/11 06:25:05;;;;;;;20.33;9.93;;;;;;;;;;5136982;27;20336;-79
2022/10/11 06:27:51;;;;;;;20.48;10.50;;;;;;;;;;5122256;27;20019;-76
2022/10/11 06:30:37;;;;;;;20.50;10.45;;;;;;;;;;5122045;27;20026;-75
2022/10/11 06:33:23;;;;;;;18.00;10.20;;;;;;;;;;5122043;27;20027;-79
2022/10/11 06:36:10;;;;;;;19.90;10.10;;;;;;;;;;5136898;27;20023;-77
2022/10/11 06:38:56;;;;;;;21.45;9.80;;;;;;;;;;5137662;27;20019;-76
2022/10/11 06:41:42;;;;;;;25.67;9.98;;;;;;;;;;5137268;27;20320;-76
2022/10/11 06:44:28;;;;;;;24.02;9.63;;;;;;;;;;5136301;27;20442;-78
2022/10/11 06:47:13;;;;;;;26.00;9.77;;;;;;;;;;5135823;27;20055;-76
2022/10/11 06:49:59;;;;;;;23.45;10.15;;;;;;;;;;5121900;27;20050;-77
2022/10/11 06:52:45;;;;;;;28.52;10.35;;;;;;;;;;5137565;27;20435;-77
2022/10/11 06:55:31;;;;;;;22.35;9.52;;;;;;;;;;5122906;27;20055;-77
2022/10/11 06:58:16;;;;;;;19.52;9.07;;;;;;;;;;5137287;27;20043;-77
2022/10/11 07:01:04;;;;;;;16.50;8.57;;;;;;;;;;5136858;27;20042;-77
2022/10/11 07:03:50;;;;;;;22.88;9.23;;;;;;;;;;5135939;27;20488;-77
2022/10/11 07:06:37;;;;;;;18.73;7.80;;;;;;;;;;5136479;27;20027;-78
2022/10/11 07:09:23;;;;;;;22.65;8.70;;;;;;;;;;5122419;27;20023;-77
2022/10/11 07:12:09;;;;;;;23.02;8.35;;;;;;;;;;5135641;27;20400;-77
2022/10/11 07:14:54;;;;;;;22.95;8.68;;;;;;;;;;5135372;27;20023;-78
2022/10/11 07:17:41;;;;;;;19.08;8.00;;;;;;;;;;5136622;27;20037;-77
2022/10/11 07:20:26;;;;;;;17.42;7.47;;;;;;;;;;5137717;27;20029;-78
2022/10/11 07:23:12;;;;;;;16.80;7.10;;;;;;;;;;5136031;27;20019;-78
2022/10/11 07:25:57;;;;;;;25.20;7.93;;;;;;;;;;5135767;27;20088;-78
2022/10/11 07:28:43;;;;;;;17.55;7.15;;;;;;;;;;5136038;27;20023;-77
2022/10/11 07:31:29;;;;;;;16.85;6.78;;;;;;;;;;5137976;27;20030;-78
2022/10/11 07:34:15;;;;;;;18.08;7.20;;;;;;;;;;5149380;27;20023;-76
2022/10/11 07:37:00;;;;;;;18.35;6.63;;;;;;;;;;5147636;27;20050;-77
2022/10/11 07:39:47;;;;;;;16.15;7.07;;;;;;;;;;5140338;27;20019;-76
2022/10/11 07:42:33;;;;;;;16.00;7.35;;;;;;;;;;5126016;27;20041;-76
2022/10/11 07:45:21;;;;;;;19.15;8.98;;;;;;;;;;5139033;27;20102;-77
2022/10/11 07:48:07;;;;;;;13.73;7.35;;;;;;;;;;5122151;27;20103;-77
2022/10/11 07:50:59;;;;;;;16.02;7.18;;;;;;;;;;5121631;27;20025;-77
2022/10/11 07:53:49;;;;;;;14.15;6.43;;;;;;;;;;5135465;27;20015;-77
2022/10/11 07:56:35;;;;;;;12.18;5.57;;;;;;;;;;5135109;27;20027;-77
2022/10/11 07:59:21;;;;;;;13.45;6.50;;;;;;;;;;5135872;27;20362;-77
2022/10/11 08:02:10;;;;;;;7.85;5.10;;;;;;;;;;5136132;27;20022;-78
2022/10/11 08:04:59;;;;;;;11.80;5.57;;;;;;;;;;5128069;27;20030;-78
2022/10/11 08:07:44;;;;;;;8.25;5.50;;;;;;;;;;5137429;27;20031;-77
2022/10/11 08:10:35;;;;;;;10.43;5.43;;;;;;;;;;5120855;27;20023;-76
2022/10/11 08:13:20;;;;;;;10.02;5.60;;;;;;;;;;5119568;27;20363;-77
2022/10/11 08:16:10;;;;;;;15.20;6.50;;;;;;;;;;5121931;27;20030;-77
2022/10/11 08:18:56;;;;;;;10.15;5.55;;;;;;;;;;5134669;27;20023;-77
2022/10/11 08:21:42;;;;;;;19.10;10.45;;;;;;;;;;5121060;27;20117;-78
2022/10/11 08:24:27;;;;;;;12.45;6.30;;;;;;;;;;5135239;27;20019;-77
2022/10/11 08:27:13;;;;;;;9.02;6.53;;;;;;;;;;5120945;27;20015;-78
2022/10/11 08:29:58;;;;;;;9.65;5.20;;;;;;;;;;5120218;27;20018;-78
2022/10/11 08:32:44;;;;;;;10.80;4.93;;;;;;;;;;5134989;27;20033;-77
2022/10/11 08:35:29;;;;;;;11.77;5.07;;;;;;;;;;5120161;27;20035;-77
2022/10/11 08:38:15;;;;;;;7.95;5.10;;;;;;;;;;5135535;27;20015;-77
2022/10/11 08:41:01;;;;;;;12.27;5.15;;;;;;;;;;5134068;27;20012;-77
2022/10/11 08:43:59;;;;;;;12.45;5.18;;;;;;;;;;5133929;27;20019;-77
2022/10/11 08:46:47;;;;;;;8.55;4.88;;;;;;;;;;5135149;27;20015;-77
2022/10/11 08:49:33;;;;;;;12.23;5.30;;;;;;;;;;5133558;27;20451;-78
2022/10/11 08:52:18;;;;;;;9.13;5.10;;;;;;;;;;5134713;27;20163;-78
2022/10/11 08:55:06;;;;;;;6.70;4.63;;;;;;;;;;5135339;27;20082;-78
2022/10/11 08:57:54;;;;;;;9.93;5.00;;;;;;;;;;5134232;27;20400;-77
2022/10/11 09:00:39;;;;;;;7.70;4.65;;;;;;;;;;5134456;27;20403;-77
2022/10/11 09:03:34;;;;;;;8.30;4.80;;;;;;;;;;5133069;27;20109;-75
2022/10/11 09:06:22;;;;;;;11.05;5.15;;;;;;;;;;5135010;27;20023;-77
2022/10/11 09:09:11;;;;;;;10.43;5.07;;;;;;;;;;5119814;27;20019;-77
2022/10/11 09:12:17;;;;;;;7.70;4.90;;;;;;;;;;5135168;27;20047;-77
2022/10/11 09:15:08;;;;;;;9.88;4.85;;;;;;;;;;5133394;28;20065;-78
2022/10/11 09:18:13;;;;;;;9.70;6.15;;;;;;;;;;5135181;28;20113;-77
2022/10/11 09:20:58;;;;;;;10.55;5.43;;;;;;;;;;5134854;28;20015;-76
2022/10/11 09:23:46;;;;;;;10.10;5.65;;;;;;;;;;5136209;27;20019;-77
2022/10/11 09:26:36;;;;;;;7.95;5.43;;;;;;;;;;5138660;27;20022;-78
2022/10/11 09:29:40;;;;;;;15.52;6.55;;;;;;;;;;5138569;27;20023;-76
2022/10/11 09:32:31;;;;;;;13.55;5.93;;;;;;;;;;5139715;27;20031;-78
2022/10/11 09:35:18;;;;;;;13.40;5.10;;;;;;;;;;5137334;27;20047;-78
2022/10/11 09:38:13;;;;;;;13.80;5.68;;;;;;;;;;5138369;27;20078;-79
2022/10/11 09:41:17;;;;;;;10.65;6.20;;;;;;;;;;5125779;27;20042;-77
2022/10/11 09:44:05;;;;;;;12.43;5.35;;;;;;;;;;5137336;27;20019;-77
2022/10/11 09:46:52;;;;;;;12.68;5.20;;;;;;;;;;5123276;27;20027;-77
2022/10/11 09:49:58;;;;;;;8.95;4.95;;;;;;;;;;5136995;27;20102;-77
2022/10/11 09:52:54;;;;;;;12.68;5.93;;;;;;;;;;5137416;27;20026;-77
2022/10/11 09:55:49;;;;;;;10.05;5.32;;;;;;;;;;5136459;27;20083;-76
2022/10/11 09:58:37;;;;;;;7.53;4.50;;;;;;;;;;5137158;27;20080;-77
2022/10/11 10:01:24;;;;;;;10.00;6.10;;;;;;;;;;5122314;27;20443;-77
2022/10/11 10:04:15;;;;;;;8.73;4.63;;;;;;;;;;5136910;27;20019;-78
2022/10/11 10:07:09;;;;;;;11.15;5.88;;;;;;;;;;5122697;27;20019;-78
2022/10/11 10:09:54;;;;;;;8.70;4.88;;;;;;;;;;5137595;27;20434;-78
2022/10/11 10:12:40;;;;;;;14.93;6.45;;;;;;;;;;5123591;27;20033;-77
2022/10/11 10:15:30;;;;;;;7.38;4.47;;;;;;;;;;5136631;27;20015;-77
2022/10/11 10:18:28;;;;;;;5.95;4.70;;;;;;;;;;5124252;27;20025;-77
2022/10/11 10:21:14;;;;;;;11.63;5.07;;;;;;;;;;5137776;27;20072;-78
2022/10/11 10:24:03;;;;;;;9.98;5.03;;;;;;;;;;5136024;27;20019;-77
2022/10/11 10:27:12;;;;;;;10.00;4.90;;;;;;;;;;5122616;27;20023;-76
2022/10/11 10:30:03;;;;;;;9.27;4.60;;;;;;;;;;5137151;27;20079;-78
2022/10/11 10:33:09;;;;;;;8.95;4.85;;;;;;;;;;5136169;27;20015;-77
2022/10/11 10:36:14;;;;;;;8.90;5.15;;;;;;;;;;5121857;27;20110;-77
2022/10/11 10:39:18;;;;;;;8.73;5.00;;;;;;;;;;5137640;27;20038;-78
2022/10/11 10:42:08;;;;;;;8.98;5.20;;;;;;;;;;5137635;27;20083;-78
2022/10/11 10:44:58;;;;;;;10.48;5.30;;;;;;;;;;5136959;27;20034;-80
2022/10/11 10:48:02;;;;;;;9.20;5.78;;;;;;;;;;5122511;27;20053;-77
2022/10/11 10:50:48;;;;;;;11.80;5.13;;;;;;;;;;5137219;27;20132;-78
2022/10/11 10:53:39;;;;;;;12.40;5.85;;;;;;;;;;5122152;27;20119;-77
2022/10/11 10:56:32;;;;;;;12.82;6.05;;;;;;;;;;5137153;27;20047;-77
2022/10/11 10:59:17;;;;;;;9.60;5.43;;;;;;;;;;5121917;27;20023;-78
2022/10/11 11:02:18;;;;;;;14.93;5.45;;;;;;;;;;5136685;27;20039;-78
2022/10/11 11:05:22;;;;;;;13.60;5.70;;;;;;;;;;5137054;27;20054;-76
2022/10/11 11:08:14;;;;;;;9.75;5.63;;;;;;;;;;5121557;27;20038;-78
2022/10/11 11:11:11;;;;;;;13.98;6.60;;;;;;;;;;5136967;27;20019;-77
2022/10/11 11:13:56;;;;;;;11.98;6.10;;;;;;;;;;5135640;27;20038;-78
2022/10/11 11:17:01;;;;;;;8.18;5.28;;;;;;;;;;5136652;27;20106;-78
2022/10/11 11:19:46;;;;;;;10.63;5.82;;;;;;;;;;5122053;27;20041;-78
2022/10/11 11:22:32;;;;;;;10.73;5.70;;;;;;;;;;5121846;27;20114;-78
2022/10/11 11:25:36;;;;;;;8.55;5.63;;;;;;;;;;5121404;27;20015;-79
2022/10/11 11:28:22;;;;;;;12.63;6.57;;;;;;;;;;5121690;27;20027;-78
2022/10/11 11:31:21;;;;;;;10.20;6.10;;;;;;;;;;5137014;27;20084;-78
2022/10/11 11:34:19;;;;;;;11.20;6.30;;;;;;;;;;5121489;27;20027;-77
2022/10/11 11:37:19;;;;;;;11.82;6.65;;;;;;;;;;5135366;27;20015;-78
2022/10/11 11:40:06;;;;;;;11.13;6.43;;;;;;;;;;5121525;27;20400;-78
2022/10/11 11:42:54;;;;;;;10.65;6.18;;;;;;;;;;5121546;27;20034;-78
2022/10/11 11:45:40;;;;;;;14.07;6.50;;;;;;;;;;5121857;27;20351;-77
2022/10/11 11:48:25;;;;;;;12.20;6.57;;;;;;;;;;5136736;27;20030;-78
2022/10/11 11:51:19;;;;;;;16.95;7.40;;;;;;;;;;5121331;27;20011;-78
2022/10/11 11:54:14;;;;;;;11.60;6.55;;;;;;;;;;5126315;27;20126;-77
2022/10/11 11:57:18;;;;;;;11.63;7.43;;;;;;;;;;5121224;27;20106;-77
2022/10/11 12:00:06;;;;;;;12.40;7.03;;;;;;;;;;5138020;27;20023;-75
2022/10/11 12:02:54;;;;;;;9.65;6.40;;;;;;;;;;5135099;27;20019;-74
2022/10/11 12:05:59;;;;;;;13.20;6.68;;;;;;;;;;5122059;27;20039;-77
2022/10/11 12:08:47;;;;;;;12.63;6.43;;;;;;;;;;5120971;27;20018;-78
2022/10/11 12:11:35;;;;;;;11.32;6.43;;;;;;;;;;5134933;27;20023;-79
2022/10/11 12:14:22;;;;;;;13.60;6.70;;;;;;;;;;5121866;27;20049;-79
2022/10/11 12:17:10;;;;;;;12.32;7.03;;;;;;;;;;5139349;27;20066;-79
2022/10/11 12:20:08;;;;;;;11.77;7.13;;;;;;;;;;5132985;27;20019;-78
2022/10/11 12:23:01;;;;;;;12.90;7.65;;;;;;;;;;5124503;27;20070;-79
2022/10/11 12:26:06;;;;;;;13.90;7.18;;;;;;;;;;5121321;27;20027;-78
2022/10/11 12:29:10;;;;;;;13.35;7.25;;;;;;;;;;5135732;27;20027;-78
2022/10/11 12:31:56;;;;;;;15.18;8.07;;;;;;;;;;5120487;27;20052;-77
2022/10/11 12:34:42;;;;;;;11.93;7.63;;;;;;;;;;5135164;27;20109;-77
2022/10/11 12:37:31;;;;;;;14.63;8.20;;;;;;;;;;5120332;27;20023;-77
2022/10/11 12:40:48;;;;;;;26.63;9.00;;;;;;;;;;5135338;27;20493;-78
2022/10/11 12:43:54;;;;;;;15.38;8.02;;;;;;;;;;5101276;27;20027;-78
2022/10/11 12:47:00;;;;;;;13.50;7.63;;;;;;;;;;5132007;27;20035;-77
2022/10/11 12:49:46;;;;;;;15.50;8.38;;;;;;;;;;5134432;27;20023;-77
2022/10/11 12:52:39;;;;;;;10.25;6.82;;;;;;;;;;5120107;27;20023;-78
2022/10/11 12:55:36;;;;;;;19.15;7.32;;;;;;;;;;5133647;27;20138;-78
2022/10/11 12:58:37;;;;;;;11.82;7.22;;;;;;;;;;5119425;27;20028;-78
2022/10/11 13:01:24;;;;;;;11.10;7.65;;;;;;;;;;5134735;27;20015;-77
2022/10/11 13:04:10;;;;;;;9.77;7.28;;;;;;;;;;5119953;27;20118;-78
2022/10/11 13:06:57;;;;;;;12.50;8.30;;;;;;;;;;5119970;27;20023;-77
2022/10/11 13:09:43;;;;;;;12.48;8.75;;;;;;;;;;5133708;27;20447;-78
2022/10/11 13:12:34;;;;;;;11.40;8.30;;;;;;;;;;5134723;27;20347;-78
2022/10/11 13:15:20;;;;;;;12.63;8.23;;;;;;;;;;5134093;27;20031;-78
2022/10/11 13:18:11;;;;;;;14.10;8.15;;;;;;;;;;5133790;28;20023;-78
2022/10/11 13:20:57;;;;;;;13.90;8.60;;;;;;;;;;5134184;28;20030;-78
2022/10/11 13:23:43;;;;;;;13.10;8.82;;;;;;;;;;5133544;28;20015;-79
2022/10/11 13:26:30;;;;;;;15.32;8.77;;;;;;;;;;5119348;28;20016;-79
2022/10/11 13:29:17;;;;;;;14.15;8.63;;;;;;;;;;5118764;28;20023;-79
2022/10/11 13:32:05;;;;;;;17.80;8.73;;;;;;;;;;5119718;28;20026;-79
2022/10/11 13:34:52;;;;;;;14.85;9.00;;;;;;;;;;5119245;28;20030;-78
2022/10/11 13:37:43;;;;;;;14.68;7.93;;;;;;;;;;5119165;28;20027;-78
2022/10/11 13:40:29;;;;;;;11.60;7.18;;;;;;;;;;5119429;28;20419;-77
2022/10/11 13:43:18;;;;;;;11.43;7.07;;;;;;;;;;5134644;28;20016;-76
2022/10/11 13:46:03;;;;;;;11.95;7.53;;;;;;;;;;5133268;28;20015;-77
2022/10/11 13:49:15;;;;;;;12.05;7.57;;;;;;;;;;5133874;28;20100;-76
2022/10/11 13:52:03;;;;;;;12.27;7.57;;;;;;;;;;5114148;28;20055;-76
2022/10/11 13:55:04;;;;;;;13.40;7.20;;;;;;;;;;5132658;28;20070;-76
2022/10/11 13:57:53;;;;;;;14.20;6.93;;;;;;;;;;5134423;28;20114;-77
2022/10/11 14:00:39;;;;;;;8.85;6.22;;;;;;;;;;5132897;28;20015;-76
2022/10/11 14:03:45;;;;;;;11.68;7.38;;;;;;;;;;5133305;28;20458;-75
2022/10/11 14:06:39;;;;;;;12.80;7.45;;;;;;;;;;5132803;28;20019;-76
2022/10/11 14:09:27;;;;;;;13.25;6.60;;;;;;;;;;5134710;27;20047;-76
2022/10/11 14:12:30;;;;;;;14.13;7.32;;;;;;;;;;5137248;27;20451;-74
2022/10/11 14:15:22;;;;;;;16.70;7.13;;;;;;;;;;5136774;27;20083;-76
2022/10/11 14:18:34;;;;;;;11.73;6.88;;;;;;;;;;5138288;27;20023;-75
2022/10/11 14:21:31;;;;;;;16.30;7.30;;;;;;;;;;5117740;27;20062;-74
2022/10/11 14:24:17;;;;;;;16.60;8.00;;;;;;;;;;5137168;27;20031;-76
2022/10/11 14:27:04;;;;;;;19.55;9.15;;;;;;;;;;5137393;27;20087;-75
2022/10/11 14:29:49;;;;;;;17.58;8.95;;;;;;;;;;5137511;27;20031;-75
2022/10/11 14:32:36;;;;;;;21.23;8.80;;;;;;;;;;5137057;27;20361;-75
2022/10/11 14:35:26;;;;;;;16.38;8.27;;;;;;;;;;5122027;27;20034;-76
2022/10/11 14:38:11;;;;;;;16.92;8.70;;;;;;;;;;5122378;27;20046;-75
2022/10/11 14:40:57;;;;;;;17.48;9.38;;;;;;;;;;5136285;27;20038;-74
2022/10/11 14:43:42;;;;;;;20.27;9.23;;;;;;;;;;5137654;27;20090;-75
2022/10/11 14:46:28;;;;;;;20.20;9.00;;;;;;;;;;5135863;27;20439;-73
2022/10/11 14:49:18;;;;;;;17.33;8.60;;;;;;;;;;5136140;27;20023;-74
2022/10/11 14:52:05;;;;;;;21.95;9.20;;;;;;;;;;5122276;27;20447;-76
2022/10/11 14:54:51;;;;;;;19.02;9.20;;;;;;;;;;5135813;27;20055;-77
2022/10/11 14:57:36;;;;;;;25.35;10.35;;;;;;;;;;5136078;27;20406;-75
2022/10/11 15:00:25;;;;;;;24.73;10.43;;;;;;;;;;5137106;27;20023;-76
2022/10/11 15:03:10;;;;;;;17.08;9.75;;;;;;;;;;5136097;27;20026;-76
2022/10/11 15:05:56;;;;;;;18.10;8.75;;;;;;;;;;5137217;27;20034;-75
2022/10/11 15:08:41;;;;;;;18.83;9.23;;;;;;;;;;5136698;27;20011;-74
2022/10/11 15:11:27;;;;;;;19.65;8.82;;;;;;;;;;5140472;27;20023;-75
2022/10/11 15:14:13;;;;;;;22.95;9.30;;;;;;;;;;5137327;27;20019;-76
2022/10/11 15:16:58;;;;;;;28.17;11.90;;;;;;;;;;5136480;27;20015;-75
2022/10/11 15:19:44;;;;;;;39.22;20.98;;;;;;;;;;5137015;27;20443;-76
2022/10/11 15:22:29;;;;;;;34.88;18.73;;;;;;;;;;5138595;27;20118;-75
2022/10/11 15:25:15;;;;;;;26.65;11.95;;;;;;;;;;5138173;27;20027;-75
2022/10/11 15:28:01;;;;;;;19.30;10.43;;;;;;;;;;5137093;27;20016;-77
2022/10/11 15:30:46;;;;;;;17.23;11.07;;;;;;;;;;5136298;27;20443;-79
2022/10/11 15:33:32;;;;;;;22.25;11.57;;;;;;;;;;5136287;27;20127;-74
2022/10/11 15:36:21;;;;;;;16.98;11.38;;;;;;;;;;5135846;27;20023;-76
2022/10/11 15:39:24;;;;;;;20.70;10.90;;;;;;;;;;5136966;27;20423;-75
2022/10/11 15:42:10;;;;;;;22.20;10.77;;;;;;;;;;5125474;27;20336;-75
2022/10/11 15:44:56;;;;;;;16.98;10.05;;;;;;;;;;5136297;27;20360;-75
2022/10/11 15:47:42;;;;;;;19.95;9.95;;;;;;;;;;5121535;27;20465;-75
2022/10/11 15:50:36;;;;;;;24.25;10.25;;;;;;;;;;5134642;27;20107;-74
2022/10/11 15:53:23;;;;;;;24.50;11.50;;;;;;;;;;5121277;27;20084;-75
2022/10/11 15:56:11;;;;;;;27.02;11.52;;;;;;;;;;5120533;27;20469;-74
2022/10/11 15:58:57;;;;;;;29.65;12.48;;;;;;;;;;5135501;27;20019;-74
2022/10/11 16:01:43;;;;;;;24.77;12.10;;;;;;;;;;5120736;27;20041;-74
2022/10/11 16:04:29;;;;;;;33.60;14.18;;;;;;;;;;5120819;27;20546;-75
2022/10/11 16:07:14;;;;;;;26.85;13.13;;;;;;;;;;5136341;27;20031;-75
2022/10/11 16:10:00;;;;;;;31.75;15.18;;;;;;;;;;5135419;27;20116;-73
2022/10/11 16:12:45;;;;;;;36.28;15.77;;;;;;;;;;5135656;27;20041;-76
2022/10/11 16:15:31;;;;;;;36.75;15.88;;;;;;;;;;5118988;27;20011;-75
2022/10/11 16:18:19;;;;;;;29.67;15.00;;;;;;;;;;5135645;27;20031;-74
2022/10/11 16:21:08;;;;;;;29.35;14.30;;;;;;;;;;5135775;27;20098;-74
2022/10/11 16:23:54;;;;;;;25.35;14.38;;;;;;;;;;5135716;27;20474;-75
2022/10/11 16:26:39;;;;;;;35.80;17.80;;;;;;;;;;5119810;27;20538;-75
2022/10/11 16:29:25;;;;;;;41.72;19.48;;;;;;;;;;5134804;27;20034;-73
2022/10/11 16:32:11;;;;;;;31.15;17.15;;;;;;;;;;5134283;27;20504;-74
2022/10/11 16:34:56;;;;;;;46.22;22.13;;;;;;;;;;5134362;27;20027;-73
2022/10/11 16:37:42;;;;;;;33.92;20.08;;;;;;;;;;5134962;27;20026;-74